Time;durP1;ratioP1;P1;durP2;ratioP2;P2;SDS_P1;SDS_P2;PMS_P1;PMS_P2;Temp;Humidity;BMP_temperature;BMP_pressure;BME280_temperature;BME280_humidity;BME280_pressure;Samples;Min_cycle;Max_cycle;Signal;HPM_P1;HPM_P2
2021/08/27 00:01:29;;;;;;;1.95;1.85;;;;;;;16.04;91.94;99798.02;1655027;86;21090;-75
2021/08/27 00:03:55;;;;;;;;;;;;;;;16.04;91.86;99796.14;1734542;83;21792;-75
2021/08/27 00:06:21;;;;;;;0.90;0.90;;;;;;;16.02;91.83;99790.19;1732053;81;20160;-77
2021/08/27 00:08:48;;;;;;;2.95;0.50;;;;;;;15.97;92.05;99799.48;1724339;81;21018;-77
2021/08/27 00:11:15;;;;;;;1.05;0.88;;;;;;;15.95;92.17;99797.05;1722654;81;21057;-75
2021/08/27 00:13:43;;;;;;;1.60;0.90;;;;;;;15.96;92.08;99804.05;1729733;81;21070;-78
2021/08/27 00:16:11;;;;;;;0.50;0.50;;;;;;;15.98;92.24;99798.98;1729496;83;21081;-76
2021/08/27 00:18:38;;;;;;;1.02;0.93;;;;;;;15.98;92.24;99798.98;1727134;81;21054;-77
2021/08/27 00:21:04;;;;;;;1.32;0.90;;;;;;;16.00;92.13;99811.11;1723705;80;21019;-75
2021/08/27 00:23:30;;;;;;;;;;;;;;;16.02;92.10;99814.91;1735738;80;21013;-76
2021/08/27 00:25:57;;;;;;;1.40;1.00;;;;;;;16.02;91.94;99819.76;1698828;83;20139;-77
2021/08/27 00:28:24;;;;;;;0.57;0.57;;;;;;;15.98;91.77;99827.20;1686325;83;21121;-75
2021/08/27 00:30:50;;;;;;;0.50;0.50;;;;;;;15.94;91.83;99818.79;1668839;83;21040;-75
2021/08/27 00:35:20;;;;;;;0.75;0.75;;;;;;;16.00;91.71;99827.24;1819790;76;23244;-76
2021/08/27 00:37:46;;;;;;;0.72;0.72;;;;;;;15.90;91.91;99827.04;1792769;78;20976;-78
2021/08/27 00:40:12;;;;;;;0.90;0.60;;;;;;;15.89;91.70;99823.51;1798315;78;21600;-75
2021/08/27 00:42:39;;;;;;;0.40;0.40;;;;;;;15.89;91.96;99821.36;1798250;78;20963;-76
2021/08/27 00:45:08;;;;;;;1.40;0.60;;;;;;;15.91;91.68;99818.71;1790100;78;20991;-74
2021/08/27 00:47:34;;;;;;;0.40;0.40;;;;;;;15.90;91.27;99820.31;1798844;78;21503;-75
2021/08/27 00:50:01;;;;;;;1.15;0.70;;;;;;;15.88;91.57;99818.37;1797021;78;21053;-74
2021/08/27 00:52:27;;;;;;;;;;;;;;;15.87;91.43;99817.55;1801424;78;20949;-75
2021/08/27 00:54:54;;;;;;;0.37;0.37;;;;;;;15.87;91.37;99828.84;1799485;78;20177;-75
2021/08/27 00:57:20;;;;;;;0.45;0.42;;;;;;;15.79;91.47;99824.65;1797209;78;21022;-76
2021/08/27 00:59:48;;;;;;;0.42;0.42;;;;;;;15.79;91.63;99826.52;1797382;78;21109;-76
2021/08/27 01:02:15;;;;;;;2.08;0.42;;;;;;;15.79;91.40;99825.18;1764981;80;21044;-74
2021/08/27 01:04:45;;;;;;;0.57;0.40;;;;;;;15.73;91.42;99823.72;1759593;80;21090;-76
2021/08/27 01:07:33;;;;;;;0.30;0.30;;;;;;;15.69;91.58;99823.87;1763543;80;21027;-75
2021/08/27 01:10:17;;;;;;;0.23;0.23;;;;;;;15.69;91.58;99823.87;1760834;80;21027;-76
2021/08/27 01:13:04;;;;;;;0.72;0.30;;;;;;;15.70;91.57;99827.36;1748885;81;21054;-77
2021/08/27 01:15:43;;;;;;;0.68;0.68;;;;;;;15.68;91.80;99821.41;1742119;81;21030;-76
2021/08/27 01:18:32;;;;;;;1.62;0.53;;;;;;;15.68;91.86;99826.78;1745820;81;21009;-76
2021/08/27 01:21:26;;;;;;;0.53;0.50;;;;;;;15.67;91.92;99834.03;1745606;81;21082;-74
2021/08/27 01:23:55;;;;;;;1.22;0.70;;;;;;;15.70;92.12;99829.52;1770307;80;21579;-76
2021/08/27 01:26:26;;;;;;;1.82;0.50;;;;;;;15.71;91.70;99824.98;1774940;80;20979;-75
2021/08/27 01:28:55;;;;;;;3.50;0.40;;;;;;;15.69;91.60;99825.72;1748998;81;21094;-77
2021/08/27 01:31:42;;;;;;;1.15;0.50;;;;;;;15.65;92.11;99814.65;1771938;80;21006;-77
2021/08/27 01:34:16;;;;;;;2.27;1.07;;;;;;;15.69;91.90;99810.94;1774600;79;21018;-74
2021/08/27 01:36:46;;;;;;;1.60;0.55;;;;;;;15.70;91.91;99814.73;1791747;79;21016;-75
2021/08/27 01:39:16;;;;;;;1.27;0.50;;;;;;;15.73;91.94;99806.75;1786894;79;21038;-74
2021/08/27 01:41:48;;;;;;;1.05;0.57;;;;;;;15.75;91.62;99817.58;1769649;80;20991;-74
2021/08/27 01:44:15;;;;;;;1.10;0.50;;;;;;;15.75;91.62;99817.58;1782207;79;21030;-75
2021/08/27 01:46:43;;;;;;;4.70;1.22;;;;;;;15.76;91.50;99812.51;1723443;83;21087;-74
2021/08/27 01:49:11;;;;;;;4.05;0.70;;;;;;;15.76;91.59;99813.85;1723349;83;21551;-76
2021/08/27 01:51:40;;;;;;;0.80;0.80;;;;;;;15.76;91.59;99813.85;1709662;83;22180;-75
2021/08/27 01:54:07;;;;;;;0.40;0.40;;;;;;;15.79;91.68;99815.77;1723450;82;21045;-74
2021/08/27 01:56:38;;;;;;;1.82;0.50;;;;;;;15.85;91.38;99824.23;1729850;82;21021;-74
2021/08/27 01:59:06;;;;;;;0.40;0.40;;;;;;;15.85;91.38;99824.23;1728581;83;21072;-75
2021/08/27 02:01:34;;;;;;;1.75;0.53;;;;;;;15.89;91.39;99824.85;1734400;81;21139;-75
2021/08/27 02:04:06;;;;;;;0.68;0.50;;;;;;;15.89;91.39;99824.85;1729224;82;20977;-74
2021/08/27 02:06:33;;;;;;;0.85;0.50;;;;;;;15.91;91.00;99820.59;1736374;81;21544;-77
2021/08/27 02:09:01;;;;;;;0.95;0.50;;;;;;;15.94;90.99;99820.94;1739862;82;20969;-75
2021/08/27 02:11:30;;;;;;;0.65;0.50;;;;;;;15.94;90.74;99814.76;1737958;82;20970;-75
2021/08/27 02:13:59;;;;;;;5.72;0.60;;;;;;;15.94;90.57;99818.25;1733027;82;21086;-75
2021/08/27 02:16:27;;;;;;;0.80;0.80;;;;;;;15.95;90.55;99815.03;1736965;81;21514;-73
2021/08/27 02:18:54;;;;;;;0.70;0.57;;;;;;;15.94;90.25;99814.76;1731699;81;21018;-75
2021/08/27 02:21:22;;;;;;;1.85;0.90;;;;;;;15.94;90.25;99814.76;1724610;81;21148;-74
2021/08/27 02:23:52;;;;;;;1.47;1.02;;;;;;;15.90;89.82;99818.97;1741354;82;20985;-74
2021/08/27 02:26:18;;;;;;;0.80;0.80;;;;;;;15.88;89.85;99819.70;1728963;82;21068;-73
2021/08/27 02:28:46;;;;;;;2.05;0.82;;;;;;;15.84;89.82;99825.27;1738251;82;21040;-75
2021/08/27 02:31:13;;;;;;;0.98;0.88;;;;;;;15.84;89.82;99825.27;1741290;82;20982;-75
2021/08/27 02:33:44;;;;;;;0.85;0.85;;;;;;;15.82;90.17;99825.50;1742170;81;21053;-75
2021/08/27 02:36:16;;;;;;;1.12;1.12;;;;;;;15.83;90.14;99831.72;1770194;80;21060;-74
2021/08/27 02:38:48;;;;;;;2.58;1.92;;;;;;;15.78;90.03;99836.97;1751035;80;21090;-75
2021/08/27 02:41:15;;;;;;;2.20;2.10;;;;;;;15.78;90.03;99836.97;1763216;80;21541;-74
2021/08/27 02:43:41;;;;;;;2.20;2.00;;;;;;;15.78;90.11;99841.00;1761489;80;20953;-75
2021/08/27 02:46:07;;;;;;;1.90;1.90;;;;;;;15.75;90.04;99843.10;1754521;80;20981;-74
2021/08/27 02:48:34;;;;;;;1.60;1.55;;;;;;;15.75;90.07;99846.33;1747738;80;21021;-74
2021/08/27 02:51:14;;;;;;;2.60;2.50;;;;;;;15.78;90.24;99849.06;1753383;80;21053;-73
2021/08/27 02:53:47;;;;;;;3.42;3.12;;;;;;;15.79;90.09;99851.52;1749159;80;21004;-74
2021/08/27 02:56:31;;;;;;;4.50;4.10;;;;;;;15.79;89.89;99854.73;1743633;80;21100;-73
2021/08/27 02:59:00;;;;;;;3.72;3.42;;;;;;;15.79;90.02;99861.45;1751137;80;21004;-75
2021/08/27 03:01:37;;;;;;;3.52;3.35;;;;;;;15.79;90.05;99860.92;1761561;80;21068;-74
2021/08/27 03:04:32;;;;;;;3.92;3.72;;;;;;;15.79;89.95;99860.11;1765837;80;21041;-74
2021/08/27 03:07:05;;;;;;;5.10;4.70;;;;;;;15.79;89.62;99866.30;1732180;80;21524;-74
2021/08/27 03:09:54;;;;;;;4.70;4.33;;;;;;;15.80;89.56;99873.29;1766216;80;21004;-74
2021/08/27 03:12:34;;;;;;;5.85;5.28;;;;;;;15.69;89.30;99872.23;1766715;79;21471;-74
2021/08/27 03:15:07;;;;;;;5.22;4.90;;;;;;;15.69;89.30;99872.23;1781242;79;21007;-74
2021/08/27 03:17:37;;;;;;;5.10;4.80;;;;;;;15.68;89.34;99872.45;1773910;79;21562;-75
2021/08/27 03:20:20;;;;;;;6.40;5.85;;;;;;;15.65;89.26;99877.78;1785452;79;21010;-75
2021/08/27 03:23:01;;;;;;;5.40;4.95;;;;;;;15.62;89.04;99882.80;1774541;79;21091;-75
2021/08/27 03:25:29;;;;;;;5.70;5.25;;;;;;;15.54;88.74;99890.14;1736044;81;21099;-75
2021/08/27 03:28:01;;;;;;;6.42;6.03;;;;;;;15.51;89.14;99895.16;1742096;81;21622;-74
2021/08/27 03:30:29;;;;;;;8.80;8.05;;;;;;;15.48;89.29;99896.45;1751106;81;20950;-75
2021/08/27 03:33:03;;;;;;;13.35;12.28;;;;;;;15.50;89.43;99901.56;1737995;81;21539;-74
2021/08/27 03:35:31;;;;;;;10.32;9.58;;;;;;;15.51;89.79;99905.91;1757250;80;21097;-74
2021/08/27 03:37:59;;;;;;;9.18;8.48;;;;;;;15.51;89.79;99905.91;1760266;80;21066;-75
2021/08/27 03:40:28;;;;;;;8.28;7.67;;;;;;;15.51;89.55;99909.93;1767627;80;20987;-76
2021/08/27 03:42:57;;;;;;;8.00;7.30;;;;;;;15.49;89.59;99906.66;1763917;80;21080;-75
2021/08/27 03:45:26;;;;;;;7.03;6.53;;;;;;;15.49;89.57;99908.00;1771116;80;21487;-75
2021/08/27 03:47:53;;;;;;;7.00;6.40;;;;;;;15.50;89.67;99914.49;1778578;79;21009;-74
2021/08/27 03:50:22;;;;;;;6.80;6.30;;;;;;;15.47;89.47;99914.13;1738003;81;21044;-75
2021/08/27 03:52:51;;;;;;;5.92;5.53;;;;;;;15.44;89.72;99906.53;1703793;83;21552;-74
2021/08/27 03:55:20;;;;;;;18.10;15.05;;;;;;;15.44;90.22;99907.88;1726274;81;20973;-75
2021/08/27 03:57:49;;;;;;;14.25;11.15;;;;;;;15.44;90.22;99907.88;1728246;82;21144;-73
2021/08/27 04:00:21;;;;;;;7.85;6.97;;;;;;;15.46;90.05;99911.14;1728683;82;21033;-75
2021/08/27 04:02:50;;;;;;;8.88;7.80;;;;;;;15.45;89.32;99910.86;1760163;80;21033;-75
2021/08/27 04:05:20;;;;;;;10.00;7.80;;;;;;;15.38;89.19;99910.42;1791356;78;21062;-74
2021/08/27 04:07:48;;;;;;;8.58;7.85;;;;;;;15.33;89.03;99915.69;1794409;78;21020;-74
2021/08/27 04:10:18;;;;;;;8.08;7.00;;;;;;;15.30;89.35;99922.03;1794132;78;20986;-74
2021/08/27 04:12:47;;;;;;;9.33;8.53;;;;;;;15.30;89.44;99912.64;1779004;78;21005;-74
2021/08/27 04:15:17;;;;;;;8.95;8.25;;;;;;;15.30;89.29;99914.79;1773608;79;21776;-75
2021/08/27 04:17:43;;;;;;;8.48;7.78;;;;;;;15.28;89.15;99902.66;1777928;79;21036;-73
2021/08/27 04:20:13;;;;;;;9.28;8.48;;;;;;;15.33;89.84;99905.44;1777889;79;21494;-75
2021/08/27 04:22:40;;;;;;;8.15;7.35;;;;;;;15.37;89.47;99912.02;1774188;79;21037;-75
2021/08/27 04:25:07;;;;;;;8.25;7.45;;;;;;;15.40;89.24;99910.19;1761356;80;21033;-73
2021/08/27 04:27:34;;;;;;;8.38;7.78;;;;;;;15.44;89.00;99905.19;1759988;81;21500;-75
2021/08/27 04:30:00;;;;;;;7.87;7.20;;;;;;;15.54;89.38;99918.34;1763084;81;21016;-76
2021/08/27 04:32:26;;;;;;;6.75;6.25;;;;;;;15.77;89.55;99908.70;1763294;81;21519;-73
2021/08/27 04:34:52;;;;;;;7.62;7.12;;;;;;;16.01;87.86;99901.47;1796807;78;21051;-74
2021/08/27 04:37:18;;;;;;;8.48;7.65;;;;;;;16.23;86.51;99900.31;1787888;79;21447;-74
2021/08/27 04:39:45;;;;;;;7.08;6.58;;;;;;;16.40;85.71;99906.31;1781714;79;21012;-74
2021/08/27 04:42:11;;;;;;;7.55;6.95;;;;;;;16.59;84.43;99901.59;1775223;79;21065;-74
2021/08/27 04:44:37;;;;;;;7.40;6.80;;;;;;;16.75;83.61;99906.22;1793805;79;21024;-75
2021/08/27 04:47:04;;;;;;;7.37;6.87;;;;;;;17.02;82.69;99912.41;1775976;79;21005;-74
2021/08/27 04:49:30;;;;;;;5.72;5.33;;;;;;;17.31;82.02;99918.05;1778998;79;21004;-73
2021/08/27 04:51:56;;;;;;;;;;;;;;;17.57;80.49;99909.03;1782750;79;21004;-74
2021/08/27 04:54:22;;;;;;;6.72;6.22;;;;;;;17.68;78.69;99914.06;1776083;79;20132;-73
2021/08/27 04:56:49;;;;;;;6.67;6.17;;;;;;;17.74;78.44;99910.91;1777091;79;20987;-74
2021/08/27 04:59:17;;;;;;;6.67;6.22;;;;;;;17.88;78.33;99919.80;1774140;79;20989;-73
2021/08/27 05:01:45;;;;;;;6.42;6.03;;;;;;;17.99;76.25;99910.50;1779007;79;21126;-72
2021/08/27 05:04:11;;;;;;;6.20;5.80;;;;;;;17.98;76.30;99915.08;1779666;80;21001;-74
2021/08/27 05:06:37;;;;;;;;;;;;;;;17.98;76.59;99911.58;1783676;79;20942;-74
2021/08/27 05:09:03;;;;;;;6.40;6.00;;;;;;;17.97;76.15;99913.47;1780211;80;20187;-74
2021/08/27 05:11:30;;;;;;;6.62;6.08;;;;;;;17.94;76.25;99913.95;1769180;79;21052;-73
2021/08/27 05:13:56;;;;;;;6.10;5.58;;;;;;;18.18;75.46;99911.88;1777898;79;21051;-74
2021/08/27 05:16:24;;;;;;;6.17;5.72;;;;;;;18.70;72.28;99907.91;1780278;80;21024;-74
2021/08/27 05:18:50;;;;;;;5.72;5.22;;;;;;;18.27;71.53;99749.86;1778900;79;20964;-74
2021/08/27 05:21:17;;;;;;;4.95;4.65;;;;;;;19.86;69.73;99912.55;1776127;80;21024;-69
2021/08/27 05:23:43;;;;;;;;;;;;;;;20.26;68.08;99912.51;1758896;79;21140;-70
2021/08/27 05:26:09;;;;;;;4.30;4.03;;;;;;;20.70;67.20;99905.43;1748881;82;20119;-71
2021/08/27 05:28:37;;;;;;;4.72;4.33;;;;;;;21.01;65.16;99906.85;1747680;81;21002;-68
2021/08/27 05:31:04;;;;;;;4.67;4.28;;;;;;;21.13;63.79;99908.75;1744550;82;21522;-72
2021/08/27 05:33:29;;;;;;;;;;;;;;;21.17;63.74;99905.80;1749062;82;21001;-70
2021/08/27 05:35:55;;;;;;;4.28;3.90;;;;;;;21.05;63.19;99910.65;1760809;80;20444;-69
2021/08/27 05:38:21;;;;;;;;;;;;;;;20.68;63.76;99918.42;1766442;80;21102;-71
2021/08/27 05:40:47;;;;;;;4.40;4.10;;;;;;;20.34;64.54;99918.80;1763914;80;20154;-70
2021/08/27 05:43:13;;;;;;;;;;;;;;;19.97;65.28;99922.36;1768827;80;21595;-71
2021/08/27 05:45:40;;;;;;;3.90;3.60;;;;;;;19.76;67.24;99924.12;1768406;80;20199;-70
2021/08/27 05:48:06;;;;;;;3.60;3.33;;;;;;;19.58;68.40;99919.88;1767716;80;21311;-70
2021/08/27 05:50:34;;;;;;;;;;;;;;;19.46;68.22;99913.84;1768248;80;21123;-69
2021/08/27 05:53:01;;;;;;;4.35;4.15;;;;;;;19.41;68.35;99920.00;1764231;80;20143;-69
2021/08/27 05:55:27;;;;;;;3.67;3.37;;;;;;;19.32;69.88;99922.09;1767744;80;20977;-69
2021/08/27 05:57:53;;;;;;;;;;;;;;;19.42;68.96;99922.16;1766176;80;21483;-69
2021/08/27 06:00:19;;;;;;;5.05;4.10;;;;;;;19.58;69.86;99921.77;1769826;80;20135;-74
2021/08/27 06:02:46;;;;;;;;;;;;;;;19.68;67.30;99921.03;1768240;80;21140;-75
2021/08/27 06:05:13;;;;;;;;;;;;;;;19.60;67.63;99921.78;1767228;80;20142;-80
2021/08/27 06:07:38;;;;;;;5.30;3.90;;;;;;;19.38;67.86;99914.30;1763488;80;20106;-81
2021/08/27 06:10:08;;;;;;;3.60;3.40;;;;;;;19.19;68.72;99922.80;1763964;80;21574;-81
2021/08/27 06:12:34;;;;;;;4.33;4.03;;;;;;;19.15;69.60;99922.20;1784491;78;20966;-78
2021/08/27 06:15:02;;;;;;;3.67;3.37;;;;;;;19.26;68.71;99924.73;1799444;78;21012;-82
2021/08/27 06:17:28;;;;;;;3.75;3.55;;;;;;;19.41;69.34;99920.00;1798160;78;21097;-79
2021/08/27 06:19:54;;;;;;;;;;;;;;;19.45;67.52;99924.36;1779002;79;21071;-78
2021/08/27 06:22:21;;;;;;;5.28;3.92;;;;;;;19.41;68.03;99925.95;1797742;76;20184;-87
2021/08/27 06:24:47;;;;;;;2.95;2.85;;;;;;;19.60;68.49;99920.44;1797427;78;21145;-84
2021/08/27 06:27:13;;;;;;;;;;;;;;;19.92;67.98;99908.80;1800731;78;20949;-79
2021/08/27 06:29:40;;;;;;;3.10;2.92;;;;;;;20.30;65.36;99912.25;1799882;78;20166;-84
2021/08/27 06:32:07;;;;;;;3.50;3.12;;;;;;;20.46;63.53;99916.41;1799784;78;20975;-80
2021/08/27 06:34:55;;;;;;;2.80;2.67;;;;;;;20.50;63.79;99917.50;1801399;78;21065;-85
2021/08/27 06:37:16;;;;;;;2.25;2.15;;;;;;;20.71;63.59;99921.94;1798557;78;21025;-75
2021/08/27 06:39:42;;;;;;;2.30;2.05;;;;;;;20.93;63.33;99917.67;1797386;78;21109;-75
2021/08/27 06:42:08;;;;;;;1.67;1.57;;;;;;;21.22;60.60;99916.38;1797661;78;21041;-70
2021/08/27 06:44:34;;;;;;;;;;;;;;;21.18;60.60;99914.19;1795649;78;21826;-70
2021/08/27 06:47:02;;;;;;;2.62;2.25;;;;;;;21.25;61.96;99915.81;1790957;79;20104;-69
2021/08/27 06:49:29;;;;;;;1.77;1.70;;;;;;;21.48;60.87;99913.98;1788653;79;21050;-67
2021/08/27 06:51:55;;;;;;;2.55;1.92;;;;;;;21.80;58.52;99916.95;1790389;79;21018;-69
2021/08/27 06:54:21;;;;;;;1.72;1.62;;;;;;;21.80;59.79;99921.02;1791175;79;21022;-74
2021/08/27 06:56:47;;;;;;;1.30;1.30;;;;;;;21.41;58.91;99853.75;1790405;79;21018;-67
2021/08/27 06:59:16;;;;;;;1.17;1.17;;;;;;;22.01;58.19;99922.34;1791404;79;21555;-69
2021/08/27 07:01:45;;;;;;;1.30;1.30;;;;;;;21.93;57.72;99921.00;1793309;78;21091;-69
2021/08/27 07:04:12;;;;;;;2.10;1.90;;;;;;;21.74;58.03;99923.47;1787383;79;21498;-68
2021/08/27 07:06:39;;;;;;;2.15;2.05;;;;;;;21.60;59.17;99913.70;1790239;79;21007;-68
2021/08/27 07:09:07;;;;;;;1.40;1.40;;;;;;;21.38;60.86;99928.87;1787092;79;21565;-69
2021/08/27 07:11:33;;;;;;;0.88;0.88;;;;;;;21.22;60.41;99928.56;1789566;79;21025;-68
2021/08/27 07:14:02;;;;;;;1.22;1.17;;;;;;;21.00;60.90;99934.50;1791139;80;21002;-69
2021/08/27 07:16:28;;;;;;;1.17;1.17;;;;;;;20.84;61.34;99937.43;1790211;79;21482;-70
2021/08/27 07:18:53;;;;;;;;;;;;;;;20.70;62.49;99941.98;1784949;79;21029;-70
2021/08/27 07:21:19;;;;;;;0.70;0.70;;;;;;;20.59;62.64;99941.64;1788557;79;20760;-69
2021/08/27 07:23:46;;;;;;;1.10;1.10;;;;;;;20.41;62.30;99936.13;1768287;79;21541;-70
2021/08/27 07:26:12;;;;;;;1.90;0.80;;;;;;;20.25;62.07;99946.59;1761629;80;21569;-69
2021/08/27 07:28:38;;;;;;;1.20;1.12;;;;;;;20.08;63.38;99948.11;1761733;80;21073;-68
2021/08/27 07:31:04;;;;;;;0.98;0.88;;;;;;;19.99;63.66;99947.80;1758550;80;21383;-69
2021/08/27 07:33:31;;;;;;;0.75;0.60;;;;;;;19.93;63.97;99928.02;1761328;80;21989;-70
2021/08/27 07:35:58;;;;;;;0.68;0.68;;;;;;;20.05;63.09;99944.59;1762824;80;21069;-70
2021/08/27 07:38:24;;;;;;;0.68;0.68;;;;;;;20.09;62.30;99948.41;1722059;82;21032;-70
2021/08/27 07:40:50;;;;;;;;;;;;;;;20.06;62.94;99947.56;1691173;83;21061;-69
2021/08/27 07:43:17;;;;;;;0.55;0.55;;;;;;;20.13;62.29;99946.25;1684630;83;20214;-70
2021/08/27 07:45:45;;;;;;;1.10;0.50;;;;;;;20.16;63.01;99952.51;1718184;83;21043;-67
2021/08/27 07:48:12;;;;;;;0.50;0.50;;;;;;;20.24;61.93;99947.14;1718263;82;21022;-70
2021/08/27 07:50:37;;;;;;;;;;;;;;;20.17;62.24;99954.16;1716771;82;21077;-71
2021/08/27 07:53:03;;;;;;;1.85;1.47;;;;;;;20.08;63.24;99960.29;1716365;82;20258;-69
2021/08/27 07:55:29;;;;;;;;;;;;;;;19.97;63.40;99968.34;1721471;82;21514;-70
2021/08/27 07:57:55;;;;;;;1.47;1.25;;;;;;;19.93;63.78;99974.00;1722226;82;20138;-67
2021/08/27 08:00:21;;;;;;;;;;;;;;;19.93;63.78;99974.00;1699138;82;21659;-70
2021/08/27 08:02:47;;;;;;;0.60;0.20;;;;;;;19.96;63.59;99972.11;1722346;83;20216;-68
2021/08/27 08:05:14;;;;;;;0.93;0.60;;;;;;;19.96;62.88;99968.05;1718516;83;21156;-69
2021/08/27 08:07:40;;;;;;;;;;;;;;;19.99;63.00;99968.90;1709573;83;21014;-69
2021/08/27 08:10:09;;;;;;;0.28;0.10;;;;;;;20.03;62.97;99972.71;1707120;83;20208;-70
2021/08/27 08:12:35;;;;;;;0.20;0.20;;;;;;;20.02;62.99;99969.74;1709003;82;21840;-68
2021/08/27 08:15:02;;;;;;;0.28;0.28;;;;;;;20.05;62.03;99975.70;1709797;84;20942;-69
2021/08/27 08:17:28;;;;;;;0.98;0.20;;;;;;;20.01;61.72;99974.05;1708870;84;21065;-70
2021/08/27 08:19:55;;;;;;;0.20;0.10;;;;;;;20.02;61.29;99972.45;1726364;83;20994;-70
2021/08/27 08:22:21;;;;;;;;;;;;;;;20.01;60.67;99969.45;1691855;83;21721;-67
2021/08/27 08:24:49;;;;;;;0.17;0.10;;;;;;;19.98;59.36;99971.31;1726990;83;20126;-68
2021/08/27 08:27:16;;;;;;;0.10;0.10;;;;;;;19.87;59.44;99976.91;1709581;84;21082;-67
2021/08/27 08:29:43;;;;;;;0.40;0.20;;;;;;;19.84;59.60;99976.91;1728919;83;21057;-68
2021/08/27 08:32:10;;;;;;;0.10;0.10;;;;;;;19.95;59.63;99981.86;1728895;82;21105;-67
2021/08/27 08:34:37;;;;;;;0.20;0.10;;;;;;;20.07;58.57;99979.77;1716331;82;21059;-69
2021/08/27 08:37:04;;;;;;;0.23;0.20;;;;;;;20.19;59.10;99974.16;1758637;80;21563;-69
2021/08/27 08:39:30;;;;;;;0.25;0.15;;;;;;;20.38;58.61;99971.32;1739291;81;20946;-68
2021/08/27 08:41:57;;;;;;;4.33;0.33;;;;;;;20.58;58.81;99974.65;1744040;81;21018;-69
2021/08/27 08:44:24;;;;;;;1.17;0.10;;;;;;;20.77;58.15;99979.09;1736712;81;21171;-69
2021/08/27 08:46:51;;;;;;;0.50;0.50;;;;;;;20.80;56.88;99975.06;1759988;80;21007;-67
2021/08/27 08:49:20;;;;;;;1.17;0.30;;;;;;;20.72;57.16;99979.09;1741440;81;21108;-68
2021/08/27 08:51:51;;;;;;;1.52;0.30;;;;;;;20.65;58.08;99977.16;1742878;81;20997;-68
2021/08/27 08:54:18;;;;;;;0.93;0.20;;;;;;;20.60;58.10;99973.07;1722997;81;21226;-70
2021/08/27 08:56:45;;;;;;;1.75;0.30;;;;;;;20.62;58.34;99976.33;1734076;81;21523;-68
2021/08/27 08:59:13;;;;;;;0.40;0.33;;;;;;;20.71;57.43;99978.80;1736276;81;21557;-69
2021/08/27 09:01:43;;;;;;;1.40;0.23;;;;;;;20.78;58.27;99986.16;1731834;80;21155;-72
2021/08/27 09:04:09;;;;;;;0.95;0.40;;;;;;;20.86;55.62;99984.02;1719316;82;21166;-69
2021/08/27 09:06:36;;;;;;;0.55;0.30;;;;;;;20.76;56.08;99986.96;1720433;82;21100;-68
2021/08/27 09:09:04;;;;;;;0.50;0.40;;;;;;;20.72;56.73;99984.52;1712896;82;21108;-69
2021/08/27 09:11:30;;;;;;;;;;;;;;;20.79;56.29;99991.86;1716678;82;21057;-68
2021/08/27 09:14:03;;;;;;;0.60;0.35;;;;;;;20.81;55.54;99996.98;1710440;82;20183;-66
2021/08/27 09:16:33;;;;;;;0.62;0.62;;;;;;;20.70;55.09;99985.84;1712567;82;20994;-69
2021/08/27 09:19:00;;;;;;;0.78;0.60;;;;;;;20.62;56.05;99995.28;1708971;82;21419;-67
2021/08/27 09:21:50;;;;;;;0.42;0.42;;;;;;;20.61;56.53;99992.31;1707548;82;21084;-68
2021/08/27 09:24:26;;;;;;;0.60;0.60;;;;;;;20.60;56.00;99992.83;1729441;81;20957;-65
2021/08/27 09:27:01;;;;;;;2.37;0.90;;;;;;;20.56;56.34;99989.55;1732895;82;21021;-67
2021/08/27 09:29:38;;;;;;;0.80;0.62;;;;;;;20.65;56.99;99995.31;1740408;81;20971;-66
2021/08/27 09:32:28;;;;;;;1.47;0.60;;;;;;;20.76;56.18;99986.96;1727810;81;21065;-66
2021/08/27 09:35:14;;;;;;;0.85;0.70;;;;;;;20.83;55.00;99986.70;1729103;82;21081;-66
2021/08/27 09:37:45;;;;;;;2.95;1.95;;;;;;;20.85;55.28;99988.63;1721114;81;21068;-67
2021/08/27 09:40:22;;;;;;;2.35;0.82;;;;;;;20.85;55.60;99987.80;1715845;82;21019;-67
2021/08/27 09:42:51;;;;;;;1.25;1.07;;;;;;;20.84;55.87;99988.89;1717059;83;21565;-67
2021/08/27 09:45:19;;;;;;;1.40;1.20;;;;;;;20.83;56.35;99985.89;1711824;82;21470;-67
2021/08/27 09:48:04;;;;;;;4.28;1.15;;;;;;;20.79;55.68;99991.86;1697202;83;20966;-67
2021/08/27 09:50:34;;;;;;;1.37;1.35;;;;;;;20.73;55.13;99995.61;1696372;83;21520;-66
2021/08/27 09:53:08;;;;;;;1.07;0.95;;;;;;;20.64;55.29;99995.83;1693578;83;21001;-67
2021/08/27 09:55:37;;;;;;;1.40;0.95;;;;;;;20.64;55.56;99995.02;1693111;82;20995;-67
2021/08/27 09:58:11;;;;;;;0.90;0.90;;;;;;;20.72;56.11;99995.34;1692953;84;20940;-65
2021/08/27 10:00:42;;;;;;;1.17;1.07;;;;;;;20.84;56.30;100002.44;1694828;83;21472;-67
2021/08/27 10:03:25;;;;;;;2.25;1.02;;;;;;;20.91;56.25;99998.95;1663855;83;21078;-68
2021/08/27 10:05:54;;;;;;;1.22;1.02;;;;;;;20.96;56.25;99996.23;1686828;83;21019;-69
2021/08/27 10:08:24;;;;;;;2.02;1.05;;;;;;;21.01;55.79;100000.33;1691414;83;21467;-68
2021/08/27 10:10:54;;;;;;;1.60;0.88;;;;;;;21.00;55.46;99998.69;1687330;83;21156;-65
2021/08/27 10:13:24;;;;;;;1.40;0.68;;;;;;;20.98;55.89;100004.91;1683465;84;21058;-67
2021/08/27 10:15:56;;;;;;;1.00;0.90;;;;;;;20.97;56.27;100004.66;1679983;85;21040;-69
2021/08/27 10:18:20;;;;;;;2.58;1.00;;;;;;;20.92;55.76;100002.72;1688193;85;22413;-69
2021/08/27 10:20:47;;;;;;;4.55;0.90;;;;;;;20.86;55.22;100001.08;1681413;85;21588;-68
2021/08/27 10:23:20;;;;;;;2.17;0.80;;;;;;;20.84;55.80;100002.44;1679587;85;21109;-68
2021/08/27 10:25:45;;;;;;;2.37;1.17;;;;;;;20.87;55.44;100000.53;1688261;83;21089;-67
2021/08/27 10:28:14;;;;;;;2.17;1.32;;;;;;;20.91;54.90;100000.30;1694295;83;21109;-69
2021/08/27 10:30:58;;;;;;;1.50;1.45;;;;;;;20.94;54.50;99997.85;1682389;85;20986;-68
2021/08/27 10:33:45;;;;;;;1.70;0.88;;;;;;;20.98;54.66;99998.14;1693444;81;21037;-67
2021/08/27 10:36:23;;;;;;;1.12;1.12;;;;;;;21.03;54.92;99991.39;1692366;83;21108;-68
2021/08/27 10:38:53;;;;;;;1.05;0.80;;;;;;;21.12;55.04;99988.44;1714537;82;21961;-68
2021/08/27 10:41:27;;;;;;;1.00;0.90;;;;;;;21.27;55.40;99989.02;1735955;82;21065;-70
2021/08/27 10:44:00;;;;;;;2.25;1.20;;;;;;;21.38;53.55;99989.86;1728215;82;21065;-69
2021/08/27 10:46:48;;;;;;;;;;;;;;;21.45;52.45;99986.36;1727668;81;21031;-68
2021/08/27 10:49:22;;;;;;;4.12;1.42;;;;;;;21.45;52.63;99980.94;1730114;82;20111;-70
2021/08/27 10:51:53;;;;;;;1.77;1.65;;;;;;;21.44;52.87;99978.48;1736063;81;21015;-68
2021/08/27 10:54:18;;;;;;;1.90;1.80;;;;;;;21.46;52.25;99974.44;1737492;82;21008;-71
2021/08/27 10:56:53;;;;;;;3.27;3.08;;;;;;;21.45;52.07;99975.52;1730988;81;21046;-66
2021/08/27 10:59:24;;;;;;;2.83;2.55;;;;;;;21.41;51.76;99968.97;1732845;81;21477;-69
2021/08/27 11:02:02;;;;;;;2.08;1.98;;;;;;;21.36;51.99;99963.53;1746456;81;20982;-68
2021/08/27 11:04:30;;;;;;;2.58;1.57;;;;;;;21.33;51.88;99962.19;1751386;81;20989;-68
2021/08/27 11:07:04;;;;;;;1.65;1.22;;;;;;;21.35;52.03;99954.59;1748576;81;21033;-68
2021/08/27 11:09:34;;;;;;;1.35;1.25;;;;;;;21.43;52.15;99967.35;1749748;81;21531;-67
2021/08/27 11:12:13;;;;;;;2.35;1.70;;;;;;;21.51;52.15;99957.34;1731431;81;21042;-68
2021/08/27 11:14:46;;;;;;;1.65;1.55;;;;;;;21.60;52.18;99954.92;1727972;81;21063;-68
2021/08/27 11:17:14;;;;;;;2.00;1.70;;;;;;;21.63;51.70;99951.12;1732826;81;20971;-69
2021/08/27 11:19:52;;;;;;;5.40;2.10;;;;;;;21.60;51.77;99957.08;1730616;81;21076;-70
2021/08/27 11:22:32;;;;;;;2.37;2.02;;;;;;;21.61;51.90;99955.20;1730737;81;21068;-67
2021/08/27 11:25:15;;;;;;;2.45;1.90;;;;;;;21.67;51.34;99955.47;1744156;81;21733;-67
2021/08/27 11:27:57;;;;;;;1.22;1.22;;;;;;;21.70;51.02;99958.45;1729826;81;22244;-68
2021/08/27 11:30:31;;;;;;;1.65;1.55;;;;;;;21.74;50.92;99960.09;1738686;81;21540;-68
2021/08/27 11:32:58;;;;;;;4.65;2.02;;;;;;;21.76;51.33;99956.56;1741850;81;20992;-67
2021/08/27 11:35:26;;;;;;;3.22;1.30;;;;;;;21.79;51.21;99960.06;1742389;81;21015;-67
2021/08/27 11:37:59;;;;;;;3.98;2.00;;;;;;;21.88;51.18;99956.27;1690312;83;21073;-67
2021/08/27 11:40:26;;;;;;;2.20;1.85;;;;;;;22.00;50.71;99958.69;1684113;83;21081;-68
2021/08/27 11:42:55;;;;;;;1.20;1.20;;;;;;;22.12;50.21;99957.32;1735240;81;21055;-67
2021/08/27 11:45:23;;;;;;;1.77;1.67;;;;;;;22.22;49.93;99957.03;1744485;80;20962;-67
2021/08/27 11:47:54;;;;;;;1.72;1.37;;;;;;;22.24;49.55;99951.59;1762965;80;21036;-68
2021/08/27 11:50:32;;;;;;;1.82;1.60;;;;;;;22.24;49.69;99959.73;1762599;80;20978;-68
2021/08/27 11:53:00;;;;;;;1.10;1.10;;;;;;;22.26;49.62;99961.66;1773678;80;21500;-67